Time;durP1;ratioP1;P1;durP2;ratioP2;P2;SDS_P1;SDS_P2;PMS_P1;PMS_P2;Temp;Humidity;BMP_temperature;BMP_pressure;BME280_temperature;BME280_humidity;BME280_pressure;Samples;Min_cycle;Max_cycle;Signal;HPM_P1;HPM_P2
2021/06/21 00:09:51;;;;;;;1.33;1.00;;;19.60;64.00;;;;;;20670581;28;20050;-56
2021/06/21 00:19:53;;;;;;;2.95;2.13;;;19.60;63.90;;;;;;20668463;28;20094;-55
2021/06/21 00:29:56;;;;;;;2.47;1.15;;;19.50;64.30;;;;;;20669674;28;20097;-56
2021/06/21 00:39:58;;;;;;;2.13;1.30;;;19.50;64.50;;;;;;20667734;28;20153;-53
2021/06/21 00:50:02;;;;;;;3.13;1.30;;;19.50;64.60;;;;;;20667158;28;20068;-55
2021/06/21 01:00:08;;;;;;;;;;;19.60;64.50;;;;;;20667196;28;20052;-56
2021/06/21 01:10:12;;;;;;;2.20;1.30;;;19.60;64.00;;;;;;20666961;28;20016;-58
2021/06/21 01:20:50;;;;;;;3.95;1.30;;;19.70;64.40;;;;;;20666377;28;20515;-54
2021/06/21 01:31:16;;;;;;;4.20;1.50;;;19.70;63.80;;;;;;20666360;28;20093;-53
2021/06/21 01:41:24;;;;;;;8.02;3.25;;;19.70;62.10;;;;;;20666435;28;20173;-53
2021/06/21 01:51:33;;;;;;;2.92;1.60;;;19.40;60.70;;;;;;20665239;28;20450;-54
2021/06/21 02:01:43;;;;;;;4.32;1.40;;;19.40;61.30;;;;;;20670674;28;20576;-56
2021/06/21 02:11:55;;;;;;;3.00;1.52;;;19.20;61.90;;;;;;20679046;28;20076;-55
2021/06/21 02:22:03;;;;;;;5.15;1.58;;;19.10;61.20;;;;;;20677698;28;20054;-56
2021/06/21 02:32:15;;;;;;;6.53;1.67;;;18.80;61.00;;;;;;20677306;28;20189;-55
2021/06/21 02:42:20;;;;;;;5.43;1.65;;;18.70;61.50;;;;;;20676086;28;20101;-53
2021/06/21 02:52:37;;;;;;;6.53;1.77;;;18.50;61.60;;;;;;20676622;28;20121;-53
2021/06/21 03:02:42;;;;;;;5.30;1.77;;;18.50;61.60;;;;;;20676344;28;20050;-54
2021/06/21 03:12:49;;;;;;;4.25;1.55;;;18.30;61.60;;;;;;20673586;28;20495;-56
2021/06/21 03:22:58;;;;;;;5.50;1.60;;;18.10;61.40;;;;;;20673406;28;20407;-57
2021/06/21 03:33:01;;;;;;;8.35;2.58;;;18.00;60.70;;;;;;20672527;28;20047;-56
2021/06/21 03:43:05;;;;;;;8.15;2.15;;;17.90;60.70;;;;;;20672356;28;20496;-54
2021/06/21 03:53:10;;;;;;;5.30;1.90;;;18.10;61.00;;;;;;20670880;28;20061;-54
2021/06/21 04:03:13;;;;;;;5.13;1.25;;;18.00;59.70;;;;;;20669768;28;20046;-54
2021/06/21 04:13:18;;;;;;;7.13;2.13;;;17.80;58.90;;;;;;20669359;28;20089;-56
2021/06/21 04:23:24;;;;;;;6.97;2.25;;;17.60;58.00;;;;;;20668924;28;20104;-54
2021/06/21 04:33:27;;;;;;;9.10;3.10;;;17.40;57.20;;;;;;20667740;28;20081;-56
2021/06/21 04:43:30;;;;;;;10.40;3.10;;;17.30;57.60;;;;;;20668014;28;20060;-54
2021/06/21 04:53:38;;;;;;;9.60;2.60;;;17.00;57.70;;;;;;20666852;28;20150;-56
2021/06/21 05:03:41;;;;;;;9.17;2.30;;;16.90;58.10;;;;;;20666560;28;20050;-53
2021/06/21 05:13:43;;;;;;;4.10;1.60;;;16.80;59.10;;;;;;20666071;28;20046;-54
2021/06/21 05:23:47;;;;;;;8.98;2.70;;;16.90;59.80;;;;;;20666550;28;20051;-55
2021/06/21 05:33:50;;;;;;;8.63;2.23;;;17.00;59.30;;;;;;20667494;28;20054;-55
2021/06/21 05:43:52;;;;;;;5.03;1.75;;;17.30;58.40;;;;;;20681204;28;20132;-54
2021/06/21 05:53:54;;;;;;;4.70;1.70;;;17.20;58.20;;;;;;20679688;28;20050;-55
2021/06/21 06:03:57;;;;;;;5.05;1.85;;;17.10;57.40;;;;;;20678942;28;20491;-54
2021/06/21 06:13:59;;;;;;;3.55;1.70;;;16.80;58.40;;;;;;20678268;28;20054;-54
2021/06/21 06:24:01;;;;;;;5.97;1.67;;;16.90;57.40;;;;;;20678767;28;20490;-53
2021/06/21 06:34:04;;;;;;;9.05;1.85;;;16.90;56.50;;;;;;20678171;28;20510;-54
2021/06/21 06:44:06;;;;;;;8.57;2.38;;;17.10;56.10;;;;;;20675575;28;20062;-54
2021/06/21 07:04:13;;;;;;;7.03;2.05;;;17.40;55.40;;;;;;20675081;28;20037;-55
2021/06/21 07:14:14;;;;;;;7.80;1.77;;;18.40;53.80;;;;;;20673449;28;20054;-54
2021/06/21 07:24:15;;;;;;;7.05;2.83;;;19.20;52.30;;;;;;20674044;28;20096;-54
2021/06/21 07:34:16;;;;;;;6.88;2.17;;;20.00;50.80;;;;;;20671686;28;20119;-55
2021/06/21 07:44:17;;;;;;;6.18;1.83;;;20.60;48.10;;;;;;20671614;28;20128;-55
2021/06/21 07:54:19;;;;;;;5.18;1.40;;;21.00;46.30;;;;;;20671242;28;20232;-57
2021/06/21 08:04:20;;;;;;;7.85;1.38;;;20.90;46.10;;;;;;20669783;28;20054;-54
2021/06/21 08:14:21;;;;;;;6.13;1.98;;;21.20;45.50;;;;;;20670430;28;20384;-54
2021/06/21 08:24:22;;;;;;;3.45;1.10;;;21.50;44.40;;;;;;20669815;28;20046;-55
2021/06/21 08:34:23;;;;;;;3.78;1.25;;;21.70;43.50;;;;;;20668735;28;20096;-54
2021/06/21 08:44:24;;;;;;;3.17;1.05;;;22.00;43.50;;;;;;20667782;28;20042;-54
2021/06/21 08:54:25;;;;;;;5.82;1.38;;;22.90;42.90;;;;;;20668548;28;20507;-56
2021/06/21 09:04:28;;;;;;;5.28;1.52;;;23.60;42.10;;;;;;20723832;28;20458;-56
2021/06/21 09:14:31;;;;;;;6.07;1.50;;;23.60;41.70;;;;;;20759152;28;20085;-55
2021/06/21 09:24:32;;;;;;;3.25;1.00;;;23.50;39.70;;;;;;20762806;28;20494;-52
2021/06/21 09:34:34;;;;;;;6.50;1.88;;;23.60;40.40;;;;;;20760710;28;20046;-53
2021/06/21 09:44:38;;;;;;;;;;;24.10;39.40;;;;;;20762731;28;20053;-52
2021/06/21 09:54:43;;;;;;;3.15;1.17;;;24.30;38.30;;;;;;20787192;28;20296;-51
2021/06/21 10:04:45;;;;;;;3.58;1.00;;;24.40;38.10;;;;;;20759831;28;20085;-54
2021/06/21 10:14:50;;;;;;;4.57;1.60;;;24.50;38.10;;;;;;20757789;28;20407;-53
2021/06/21 10:24:55;;;;;;;4.45;1.42;;;24.70;38.00;;;;;;20757312;28;20057;-52
2021/06/21 10:34:57;;;;;;;2.97;0.80;;;24.60;36.60;;;;;;20758223;28;20050;-53
2021/06/21 10:44:59;;;;;;;3.90;1.50;;;24.50;36.50;;;;;;20755823;28;20058;-53
2021/06/21 10:55:20;;;;;;;2.53;0.93;;;24.30;37.10;;;;;;20756262;28;20545;-51
2021/06/21 11:05:37;;;;;;;1.92;0.80;;;24.30;37.70;;;;;;20754926;28;20088;-53
2021/06/21 11:15:38;;;;;;;3.63;1.05;;;24.50;37.00;;;;;;20754090;28;20394;-51
2021/06/21 11:25:49;;;;;;;3.28;0.95;;;24.60;35.60;;;;;;20753071;28;20050;-51
2021/06/21 11:35:56;;;;;;;3.80;0.98;;;24.30;36.20;;;;;;20751897;28;20068;-56
2021/06/21 11:45:59;;;;;;;2.10;0.93;;;24.30;36.70;;;;;;20751485;28;20512;-54
2021/06/21 11:56:00;;;;;;;3.78;1.60;;;24.30;37.50;;;;;;20748433;28;20042;-56
2021/06/21 12:06:02;;;;;;;5.13;1.33;;;24.30;36.60;;;;;;20750734;28;20084;-57
2021/06/21 12:16:16;;;;;;;6.90;3.55;;;24.40;36.90;;;;;;20749676;28;20058;-56
2021/06/21 12:26:17;;;;;;;2.25;1.00;;;24.30;36.60;;;;;;20748484;28;20054;-56
2021/06/21 12:36:20;;;;;;;3.35;0.93;;;24.50;36.60;;;;;;20749014;28;20061;-56
2021/06/21 12:46:23;;;;;;;2.85;0.85;;;24.50;36.50;;;;;;20748145;28;20110;-56
2021/06/21 12:56:34;;;;;;;2.55;1.00;;;24.60;35.80;;;;;;20748686;28;20133;-57
2021/06/21 13:06:37;;;;;;;4.43;1.80;;;24.70;35.80;;;;;;20746913;28;20133;-57
2021/06/21 13:16:38;;;;;;;3.40;0.88;;;25.00;35.30;;;;;;20746853;28;20046;-57
2021/06/21 13:26:45;;;;;;;2.60;1.20;;;25.10;34.80;;;;;;20746061;28;20112;-57
2021/06/21 13:36:58;;;;;;;2.47;1.25;;;25.10;35.90;;;;;;20747598;28;20549;-55
2021/06/21 13:46:59;;;;;;;3.20;1.10;;;25.20;35.50;;;;;;20747098;28;20050;-57
2021/06/21 13:57:11;;;;;;;2.60;1.50;;;25.20;35.70;;;;;;20750875;28;20064;-57
2021/06/21 14:07:11;;;;;;;2.47;1.20;;;25.30;35.50;;;;;;20760972;28;20049;-56
2021/06/21 14:17:19;;;;;;;3.85;1.20;;;25.10;35.50;;;;;;20760074;28;20433;-57
2021/06/21 14:27:23;;;;;;;2.08;0.90;;;25.00;35.90;;;;;;20759798;28;20058;-58
2021/06/21 14:37:28;;;;;;;2.13;1.40;;;25.10;35.50;;;;;;20758217;28;20065;-55
2021/06/21 14:47:32;;;;;;;1.92;0.95;;;25.20;35.50;;;;;;20757769;28;20053;-56
2021/06/21 14:57:38;;;;;;;3.10;0.80;;;25.40;34.80;;;;;;20755750;28;20548;-56
2021/06/21 15:07:42;;;;;;;1.77;0.80;;;25.50;34.90;;;;;;20754852;28;20085;-56
2021/06/21 15:17:47;;;;;;;1.80;0.98;;;25.40;34.80;;;;;;20753611;28;20413;-57
2021/06/21 15:27:52;;;;;;;4.13;1.00;;;25.40;35.20;;;;;;20755155;28;20050;-59
2021/06/21 15:37:54;;;;;;;2.03;0.93;;;25.50;35.10;;;;;;20753572;28;20054;-56
2021/06/21 15:47:56;;;;;;;1.45;0.80;;;25.40;35.30;;;;;;20754031;28;20049;-55
2021/06/21 15:58:04;;;;;;;3.20;0.65;;;25.10;36.00;;;;;;20751991;28;20046;-56
2021/06/21 16:08:06;;;;;;;3.15;0.90;;;24.90;36.30;;;;;;20751299;28;20120;-58
2021/06/21 16:18:08;;;;;;;4.22;0.82;;;25.00;36.80;;;;;;20745328;28;20085;-54
2021/06/21 16:28:09;;;;;;;2.90;1.13;;;24.90;36.90;;;;;;20750579;28;20053;-54
2021/06/21 16:38:13;;;;;;;2.17;0.70;;;24.70;37.30;;;;;;20746036;28;20361;-55
2021/06/21 16:48:15;;;;;;;0.98;0.70;;;24.60;37.60;;;;;;20747777;28;20046;-56
2021/06/21 16:58:17;;;;;;;;;;;24.50;36.80;;;;;;20745686;28;20439;-55
2021/06/21 17:08:19;;;;;;;4.10;0.97;;;24.10;37.20;;;;;;20733312;28;19926;-56
2021/06/21 17:18:23;;;;;;;3.03;0.90;;;24.20;37.60;;;;;;20745452;28;20065;-55
2021/06/21 17:28:25;;;;;;;2.03;0.85;;;24.30;37.50;;;;;;20746237;28;20046;-57
2021/06/21 17:38:27;;;;;;;0.80;0.60;;;24.30;38.10;;;;;;20761257;28;20054;-56
2021/06/21 17:48:29;;;;;;;1.60;1.05;;;24.10;38.00;;;;;;20761163;28;20046;-57
2021/06/21 17:58:32;;;;;;;0.65;0.50;;;24.00;37.20;;;;;;20758985;28;20402;-58
2021/06/21 18:08:35;;;;;;;1.85;0.80;;;24.00;37.80;;;;;;20758867;28;20074;-58
2021/06/21 18:18:39;;;;;;;1.50;0.60;;;23.90;37.90;;;;;;20757153;28;20054;-57
2021/06/21 18:28:42;;;;;;;1.95;0.93;;;24.10;37.20;;;;;;20758010;28;20124;-56
2021/06/21 18:38:44;;;;;;;1.13;0.63;;;23.90;37.40;;;;;;20756162;28;20053;-59
2021/06/21 18:48:46;;;;;;;3.38;1.15;;;23.70;38.50;;;;;;20755075;28;20050;-57
2021/06/21 18:58:48;;;;;;;1.77;0.80;;;23.60;38.70;;;;;;20755548;28;20054;-57
2021/06/21 19:08:50;;;;;;;;;;;23.30;39.80;;;;;;20755593;28;20042;-57
2021/06/21 19:18:53;;;;;;;5.03;2.60;;;23.10;40.00;;;;;;20754816;28;19928;-56
2021/06/21 19:28:55;;;;;;;2.50;1.42;;;22.80;41.00;;;;;;20752487;28;20050;-56
2021/06/21 19:38:58;;;;;;;2.95;1.27;;;22.80;41.90;;;;;;20752628;28;20049;-58
2021/06/21 19:49:00;;;;;;;6.50;3.25;;;22.70;42.00;;;;;;20753002;28;20046;-57
2021/06/21 19:59:02;;;;;;;2.65;1.10;;;22.30;42.70;;;;;;20751688;28;20057;-57
2021/06/21 20:09:04;;;;;;;3.30;1.27;;;22.30;42.70;;;;;;20750997;28;20046;-58
2021/06/21 20:19:07;;;;;;;3.10;1.20;;;22.30;42.90;;;;;;20749691;28;20069;-56
2021/06/21 20:29:09;;;;;;;2.53;0.90;;;22.20;43.50;;;;;;20748851;28;20295;-57
2021/06/21 20:39:11;;;;;;;2.73;1.60;;;22.00;44.00;;;;;;20747662;28;20442;-56
2021/06/21 20:49:13;;;;;;;1.97;1.30;;;21.90;44.30;;;;;;20747672;28;20072;-56
2021/06/21 20:59:15;;;;;;;1.80;1.10;;;21.70;44.80;;;;;;20746373;28;20387;-56
2021/06/21 21:09:17;;;;;;;3.05;1.02;;;21.70;45.30;;;;;;20746262;28;20299;-56
2021/06/21 21:19:20;;;;;;;1.83;1.40;;;21.60;45.80;;;;;;20745370;28;20107;-58
2021/06/21 21:29:21;;;;;;;1.90;1.03;;;21.60;46.00;;;;;;20743905;28;20124;-56
2021/06/21 21:39:23;;;;;;;2.33;1.50;;;21.30;46.50;;;;;;20745662;28;20132;-55
2021/06/21 21:49:26;;;;;;;2.40;0.90;;;21.20;47.30;;;;;;20745363;28;20046;-57
2021/06/21 21:59:28;;;;;;;2.73;1.70;;;21.30;47.20;;;;;;20744779;28;20053;-55
2021/06/21 22:09:30;;;;;;;3.92;1.42;;;21.20;47.50;;;;;;20745017;28;20050;-56
2021/06/21 22:19:31;;;;;;;5.00;1.30;;;21.10;47.80;;;;;;20752724;28;20069;-56
2021/06/21 22:29:33;;;;;;;1.60;1.00;;;21.00;48.00;;;;;;20758922;28;20057;-55
2021/06/21 22:39:35;;;;;;;1.98;1.10;;;20.90;48.70;;;;;;20758566;28;20058;-55
2021/06/21 22:49:37;;;;;;;2.37;1.10;;;20.90;48.40;;;;;;20758088;28;20065;-55
2021/06/21 22:59:40;;;;;;;2.33;1.20;;;20.70;48.30;;;;;;20757731;28;20136;-54
2021/06/21 23:09:42;;;;;;;2.00;1.20;;;20.60;48.10;;;;;;20755544;28;20045;-55
2021/06/21 23:19:43;;;;;;;1.88;1.33;;;20.50;47.90;;;;;;20755145;28;20311;-55
2021/06/21 23:29:45;;;;;;;1.52;1.00;;;20.40;48.10;;;;;;20753426;28;20050;-55
2021/06/21 23:39:52;;;;;;;4.38;1.08;;;20.40;48.00;;;;;;20753619;28;20129;-55
2021/06/21 23:49:54;;;;;;;2.28;1.20;;;20.40;48.00;;;;;;20752743;28;20399;-55
2021/06/21 23:59:55;;;;;;;2.80;1.35;;;20.40;48.60;;;;;;20752488;28;20057;-55
